createdAt,value
2023-04-15T00:00:59.893Z,8.22
2023-04-15T00:03:29.910Z,8.17
2023-04-15T00:05:58.689Z,8.19
2023-04-15T00:08:27.344Z,8.17
2023-04-15T00:10:55.846Z,8.17
2023-04-15T00:13:24.705Z,8.14
2023-04-15T00:15:52.331Z,8.13
2023-04-15T00:18:19.605Z,8.13
2023-04-15T00:20:47.149Z,8.10
2023-04-15T00:23:17.252Z,8.06
2023-04-15T00:25:44.927Z,8.09
2023-04-15T00:28:12.461Z,8.07
2023-04-15T00:30:39.982Z,8.06
2023-04-15T00:33:09.849Z,8.04
2023-04-15T00:35:43.557Z,8.01
2023-04-15T00:38:12.486Z,7.99
2023-04-15T00:40:41.460Z,7.98
2023-04-15T00:43:08.989Z,7.97
2023-04-15T00:45:36.634Z,7.95
2023-04-15T00:48:05.590Z,7.93
2023-04-15T00:50:36.283Z,7.91
2023-04-15T00:53:03.798Z,7.89
2023-04-15T00:55:33.449Z,7.87
2023-04-15T00:58:00.856Z,7.82
2023-04-15T01:00:30.406Z,7.78
2023-04-15T01:03:01.050Z,7.77
2023-04-15T01:05:30.251Z,7.75
2023-04-15T01:07:57.856Z,7.71
2023-04-15T01:10:26.414Z,7.67
2023-04-15T01:12:54.887Z,7.64
2023-04-15T01:15:22.732Z,7.59
2023-04-15T01:17:51.147Z,7.56
2023-04-15T01:20:19.497Z,7.50
2023-04-15T01:22:49.310Z,7.48
2023-04-15T01:25:36.107Z,7.46
2023-04-15T01:28:03.954Z,7.40
2023-04-15T01:30:35.972Z,7.36
2023-04-15T01:33:03.450Z,7.33
2023-04-15T01:35:32.398Z,7.30
2023-04-15T01:38:08.490Z,7.26
2023-04-15T01:40:36.290Z,7.23
2023-04-15T01:43:03.932Z,7.20
2023-04-15T01:45:31.272Z,7.16
2023-04-15T01:47:58.904Z,7.15
2023-04-15T01:50:27.197Z,7.10
2023-04-15T01:52:56.002Z,7.08
2023-04-15T01:55:24.733Z,7.08
2023-04-15T01:57:53.851Z,7.04
2023-04-15T02:00:23.097Z,7.05
2023-04-15T02:02:54.034Z,7.04
2023-04-15T02:05:21.497Z,7.01
2023-04-15T02:07:49.423Z,7.01
2023-04-15T02:10:17.233Z,6.98
2023-04-15T02:12:44.807Z,6.98
2023-04-15T02:15:12.183Z,6.95
2023-04-15T02:17:39.669Z,6.91
2023-04-15T02:20:11.451Z,6.88
2023-04-15T02:22:38.837Z,6.86
2023-04-15T02:25:07.503Z,6.85
2023-04-15T02:27:36.628Z,6.82
2023-04-15T02:30:07.422Z,6.80
2023-04-15T02:32:35.616Z,6.81
2023-04-15T02:35:09.408Z,6.80
2023-04-15T02:37:44.978Z,6.78
2023-04-15T02:40:16.503Z,6.77
2023-04-15T02:42:44.656Z,6.74
2023-04-15T02:45:16.402Z,6.71
2023-04-15T02:47:45.980Z,6.67
2023-04-15T02:50:15.174Z,6.63
2023-04-15T02:52:44.886Z,6.61
2023-04-15T02:55:13.317Z,6.59
2023-04-15T02:57:41.249Z,6.57
2023-04-15T03:00:11.942Z,6.56
2023-04-15T03:02:43.100Z,6.50
2023-04-15T03:05:15.106Z,6.51
2023-04-15T03:07:48.594Z,6.46
2023-04-15T03:10:16.104Z,6.45
2023-04-15T03:12:44.922Z,6.43
2023-04-15T03:15:17.312Z,6.41
2023-04-15T03:17:49.659Z,6.38
2023-04-15T03:20:17.391Z,6.35
2023-04-15T03:22:44.769Z,6.34
2023-04-15T03:25:13.322Z,6.34
2023-04-15T03:27:42.579Z,6.31
2023-04-15T03:30:10.902Z,6.28
2023-04-15T03:32:40.854Z,6.22
2023-04-15T03:35:09.773Z,6.23
2023-04-15T03:37:39.519Z,6.22
2023-04-15T03:40:09.788Z,6.23
2023-04-15T03:42:37.107Z,6.21
2023-04-15T03:45:05.282Z,6.21
2023-04-15T03:47:32.595Z,6.21
2023-04-15T03:50:00.516Z,6.21
2023-04-15T03:52:27.741Z,6.22
2023-04-15T03:54:56.365Z,6.22
2023-04-15T03:57:23.722Z,6.24
2023-04-15T03:59:51.299Z,6.24
2023-04-15T04:02:18.828Z,6.23
2023-04-15T04:04:46.493Z,6.23
2023-04-15T04:07:18.216Z,6.25
2023-04-15T04:09:47.348Z,6.22
2023-04-15T04:12:16.553Z,6.23
2023-04-15T04:14:43.943Z,6.24
2023-04-15T04:17:11.791Z,6.22
2023-04-15T04:19:39.506Z,6.23
2023-04-15T04:22:06.795Z,6.22
2023-04-15T04:24:35.025Z,6.22
2023-04-15T04:27:02.297Z,6.21
2023-04-15T04:29:31.551Z,6.19
2023-04-15T04:31:58.919Z,6.18
2023-04-15T04:34:26.241Z,6.16
2023-04-15T04:36:53.552Z,6.13
2023-04-15T04:39:20.815Z,6.13
2023-04-15T04:41:48.141Z,6.10
2023-04-15T04:44:15.974Z,6.10
2023-04-15T04:46:43.309Z,6.08
2023-04-15T04:49:12.304Z,6.08
2023-04-15T04:51:40.889Z,6.06
2023-04-15T04:54:08.673Z,6.04
2023-04-15T04:56:35.930Z,6.02
2023-04-15T04:59:04.152Z,6.03
2023-04-15T05:01:31.448Z,6.04
2023-04-15T05:03:58.906Z,6.05
2023-04-15T05:06:30.564Z,6.03
2023-04-15T05:09:00.261Z,6.05
2023-04-15T05:11:28.662Z,6.03
2023-04-15T05:13:56.136Z,6.08
2023-04-15T05:16:23.573Z,6.12
2023-04-15T05:18:52.660Z,6.12
2023-04-15T05:21:21.566Z,6.17
2023-04-15T05:23:49.106Z,6.19
2023-04-15T05:26:18.507Z,6.27
2023-04-15T05:28:46.203Z,6.42
2023-04-15T05:31:16.213Z,6.57
2023-04-15T05:33:43.866Z,6.66
2023-04-15T05:36:19.751Z,6.77
2023-04-15T05:38:47.012Z,6.80
2023-04-15T05:41:16.583Z,6.85
2023-04-15T05:43:45.752Z,6.95
2023-04-15T05:46:13.102Z,6.95
2023-04-15T05:48:40.485Z,6.91
2023-04-15T05:51:08.086Z,6.87
2023-04-15T05:53:35.923Z,6.82
2023-04-15T05:56:03.347Z,6.80
2023-04-15T05:58:30.735Z,6.80
2023-04-15T06:00:58.073Z,6.77
2023-04-15T06:03:25.693Z,6.79
2023-04-15T06:05:53.178Z,6.81
2023-04-15T06:08:20.643Z,6.84
2023-04-15T06:10:48.524Z,6.83
2023-04-15T06:13:17.047Z,6.89
2023-04-15T06:15:45.445Z,6.92
2023-04-15T06:18:13.244Z,6.94
2023-04-15T06:20:41.890Z,6.97
2023-04-15T06:23:10.354Z,6.96
2023-04-15T06:25:38.702Z,6.99
2023-04-15T06:28:06.380Z,7.00
2023-04-15T06:30:36.216Z,7.04
2023-04-15T06:33:05.601Z,7.08
2023-04-15T06:35:33.135Z,7.10
2023-04-15T06:38:00.417Z,7.17
2023-04-15T06:40:28.349Z,7.29
2023-04-15T06:42:56.161Z,7.39
2023-04-15T06:45:24.946Z,7.54
2023-04-15T06:47:53.456Z,7.61
2023-04-15T06:50:21.073Z,7.73
2023-04-15T06:52:50.365Z,7.89
2023-04-15T06:55:17.898Z,8.06
2023-04-15T06:57:46.071Z,8.34
2023-04-15T07:00:18.187Z,8.62
2023-04-15T07:02:56.001Z,8.86
2023-04-15T07:05:25.727Z,9.01
2023-04-15T07:07:58.252Z,9.12
2023-04-15T07:10:27.197Z,9.27
2023-04-15T07:13:01.161Z,9.38
2023-04-15T07:15:29.749Z,9.51
2023-04-15T07:17:57.752Z,9.66
2023-04-15T07:20:25.698Z,9.76
2023-04-15T07:22:54.232Z,9.87
2023-04-15T07:25:23.794Z,9.94
2023-04-15T07:27:51.440Z,10.03
2023-04-15T07:30:18.911Z,10.03
2023-04-15T07:32:47.637Z,10.09
2023-04-15T07:35:17.212Z,10.22
2023-04-15T07:37:46.075Z,10.31
2023-04-15T07:40:16.226Z,10.40
2023-04-15T07:42:50.308Z,10.51
2023-04-15T07:45:22.453Z,10.64
2023-04-15T07:47:51.604Z,10.71
2023-04-15T07:50:22.880Z,10.77
2023-04-15T07:52:53.309Z,10.85
2023-04-15T07:55:23.636Z,10.99
2023-04-15T07:57:51.363Z,11.12
2023-04-15T08:00:22.275Z,11.28
2023-04-15T08:02:53.308Z,11.44
2023-04-15T08:05:23.251Z,11.54
2023-04-15T08:07:53.201Z,11.63
2023-04-15T08:10:20.664Z,11.74
2023-04-15T08:12:49.648Z,11.86
2023-04-15T08:15:17.823Z,11.86
2023-04-15T08:17:47.291Z,11.95
2023-04-15T08:20:16.758Z,12.02
2023-04-15T08:22:52.293Z,12.16
2023-04-15T08:25:23.409Z,12.08
2023-04-15T08:27:55.827Z,11.92
2023-04-15T08:30:24.674Z,11.79
2023-04-15T08:32:55.181Z,11.72
2023-04-15T08:35:24.130Z,11.54
2023-04-15T08:37:51.495Z,11.39
2023-04-15T08:40:21.027Z,11.27
2023-04-15T08:42:54.657Z,11.21
2023-04-15T08:45:23.542Z,11.12
2023-04-15T08:47:56.743Z,11.01
2023-04-15T08:50:28.627Z,10.92
2023-04-15T08:52:59.307Z,10.89
2023-04-15T08:55:35.937Z,10.85
2023-04-15T08:58:05.705Z,10.92
2023-04-15T09:00:34.130Z,10.90
2023-04-15T09:03:02.438Z,10.90
2023-04-15T09:05:33.950Z,11.03
2023-04-15T09:08:04.608Z,11.16
2023-04-15T09:10:34.457Z,11.36
2023-04-15T09:13:03.360Z,11.40
2023-04-15T09:15:33.907Z,11.57
2023-04-15T09:18:02.624Z,11.76
2023-04-15T09:20:32.832Z,12.01
2023-04-15T09:23:15.501Z,12.27
2023-04-15T09:25:45.453Z,12.46
2023-04-15T09:28:14.065Z,12.66
2023-04-15T09:30:46.831Z,13.06
2023-04-15T09:33:17.470Z,13.30
2023-04-15T09:36:10.445Z,13.45
2023-04-15T09:39:02.008Z,13.41
2023-04-15T09:41:29.350Z,13.55
2023-04-15T09:43:57.307Z,13.51
2023-04-15T09:46:46.221Z,13.45
2023-04-15T09:49:16.325Z,13.40
2023-04-15T09:51:54.124Z,13.49
2023-04-15T09:54:47.388Z,13.48
2023-04-15T09:57:17.921Z,13.33
2023-04-15T09:59:48.212Z,13.27
2023-04-15T10:02:19.618Z,13.37
2023-04-15T10:04:50.381Z,13.44
2023-04-15T10:07:23.206Z,13.57
2023-04-15T10:09:53.061Z,13.86
2023-04-15T10:12:23.695Z,14.03
2023-04-15T10:15:03.305Z,14.39
2023-04-15T10:17:37.286Z,14.43
2023-04-15T10:20:08.179Z,14.61
2023-04-15T10:22:39.241Z,14.56
2023-04-15T10:25:09.755Z,14.55
2023-04-15T10:27:42.295Z,14.53
2023-04-15T10:30:12.720Z,14.52
2023-04-15T10:32:44.418Z,14.51
2023-04-15T10:35:24.370Z,14.52
2023-04-15T10:37:54.462Z,14.70
2023-04-15T10:40:33.647Z,14.97
2023-04-15T10:43:03.068Z,15.19
2023-04-15T10:45:38.040Z,15.10
2023-04-15T10:48:09.412Z,15.11
2023-04-15T10:50:57.779Z,15.21
2023-04-15T10:53:31.959Z,15.45
2023-04-15T10:56:00.584Z,15.67
2023-04-15T10:58:44.079Z,15.98
2023-04-15T11:01:11.706Z,16.04
2023-04-15T11:03:45.628Z,16.31
2023-04-15T11:06:14.508Z,16.47
2023-04-15T11:08:56.744Z,16.46
2023-04-15T11:11:24.186Z,16.54
2023-04-15T11:13:53.608Z,16.78
2023-04-15T11:16:21.512Z,16.92
2023-04-15T11:18:57.531Z,16.78
2023-04-15T11:21:29.643Z,16.64
2023-04-15T11:23:57.027Z,16.60
2023-04-15T11:26:27.293Z,16.47
2023-04-15T11:28:59.813Z,16.16
2023-04-15T11:31:28.657Z,15.60
2023-04-15T11:34:02.447Z,15.02
2023-04-15T11:36:35.618Z,14.60
2023-04-15T11:39:02.986Z,14.40
2023-04-15T11:41:30.598Z,14.24
2023-04-15T11:43:57.933Z,14.36
2023-04-15T11:46:31.906Z,14.67
2023-04-15T11:49:00.228Z,14.83
2023-04-15T11:51:32.863Z,14.92
2023-04-15T11:54:01.688Z,14.74
2023-04-15T11:56:30.518Z,14.64
2023-04-15T11:59:02.291Z,14.70
2023-04-15T12:01:44.945Z,15.16
2023-04-15T12:04:22.504Z,15.58
2023-04-15T12:06:53.953Z,15.65
2023-04-15T12:09:21.992Z,15.91
2023-04-15T12:11:58.339Z,15.70
2023-04-15T12:14:28.880Z,15.58
2023-04-15T12:17:04.960Z,15.45
2023-04-15T12:19:37.948Z,15.34
2023-04-15T12:22:16.388Z,15.13
2023-04-15T12:24:48.008Z,14.96
2023-04-15T12:27:17.842Z,14.77
2023-04-15T12:29:45.767Z,14.67
2023-04-15T12:32:16.583Z,14.61
2023-04-15T12:34:55.627Z,14.72
2023-04-15T12:37:23.222Z,15.15
2023-04-15T12:39:51.943Z,15.46
2023-04-15T12:42:20.381Z,15.38
2023-04-15T12:44:48.066Z,15.17
2023-04-15T12:47:17.213Z,15.06
2023-04-15T12:49:47.206Z,15.03
2023-04-15T12:52:15.164Z,15.03
2023-04-15T12:54:44.529Z,15.04
2023-04-15T12:57:12.485Z,15.13
2023-04-15T12:59:43.237Z,15.15
2023-04-15T13:02:10.658Z,15.24
2023-04-15T13:04:39.293Z,15.09
2023-04-15T13:07:07.556Z,14.93
2023-04-15T13:09:35.299Z,15.12
2023-04-15T13:12:05.399Z,15.23
2023-04-15T13:14:32.740Z,15.08
2023-04-15T13:17:10.208Z,15.20
2023-04-15T13:19:38.781Z,15.37
2023-04-15T13:22:08.445Z,15.48
2023-04-15T13:24:39.692Z,15.72
2023-04-15T13:27:08.395Z,15.72
2023-04-15T13:29:35.692Z,15.76
2023-04-15T13:32:03.246Z,15.87
2023-04-15T13:34:30.716Z,15.64
2023-04-15T13:36:59.685Z,15.50
2023-04-15T13:39:28.096Z,15.30
2023-04-15T13:41:57.864Z,15.12
2023-04-15T13:44:25.367Z,15.18
2023-04-15T13:46:54.675Z,15.02
2023-04-15T13:49:23.407Z,15.10
2023-04-15T13:51:52.155Z,15.49
2023-04-15T13:54:20.770Z,15.70
2023-04-15T13:56:48.510Z,15.84
2023-04-15T13:59:16.056Z,15.66
2023-04-15T14:01:44.369Z,15.70
2023-04-15T14:04:11.933Z,16.07
2023-04-15T14:06:40.706Z,15.99
2023-04-15T14:09:08.103Z,15.56
2023-04-15T14:11:36.977Z,15.22
2023-04-15T14:14:05.707Z,15.00
2023-04-15T14:16:34.711Z,14.63
2023-04-15T14:19:03.880Z,14.25
2023-04-15T14:21:32.653Z,14.14
2023-04-15T14:24:00.522Z,14.00
2023-04-15T14:26:28.310Z,13.94
2023-04-15T14:28:56.815Z,13.77
2023-04-15T14:31:25.485Z,13.70
2023-04-15T14:33:54.701Z,13.62
2023-04-15T14:36:21.982Z,13.55
2023-04-15T14:38:50.266Z,13.65
2023-04-15T14:41:17.528Z,13.50
2023-04-15T14:43:44.881Z,13.28
2023-04-15T14:46:14.541Z,13.08
2023-04-15T14:48:42.897Z,12.96
2023-04-15T14:51:10.338Z,13.31
2023-04-15T14:53:40.456Z,13.28
2023-04-15T14:56:08.333Z,13.20
2023-04-15T14:58:35.974Z,14.11
2023-04-15T15:01:04.795Z,14.21
2023-04-15T15:03:32.952Z,14.04
2023-04-15T15:06:01.778Z,13.81
2023-04-15T15:08:30.066Z,13.69
2023-04-15T15:10:57.515Z,13.52
2023-04-15T15:13:31.502Z,13.35
2023-04-15T15:16:00.897Z,13.28
2023-04-15T15:18:28.409Z,13.70
2023-04-15T15:20:57.138Z,14.25
2023-04-15T15:23:26.916Z,14.06
2023-04-15T15:25:54.903Z,13.81
2023-04-15T15:28:22.360Z,13.55
2023-04-15T15:30:51.267Z,13.25
2023-04-15T15:33:20.835Z,13.13
2023-04-15T15:35:48.215Z,13.16
2023-04-15T15:38:16.822Z,12.94
2023-04-15T15:40:44.859Z,12.78
2023-04-15T15:43:12.124Z,12.57
2023-04-15T15:45:43.148Z,12.30
2023-04-15T15:48:10.512Z,12.12
2023-04-15T15:50:38.897Z,11.89
2023-04-15T15:53:06.233Z,11.73
2023-04-15T15:55:33.846Z,11.63
2023-04-15T15:58:01.695Z,11.56
2023-04-15T16:00:29.242Z,11.52
2023-04-15T16:05:27.930Z,11.27
2023-04-15T16:07:58.029Z,11.29
2023-04-15T16:10:25.361Z,11.31
2023-04-15T16:12:52.742Z,11.29
2023-04-15T16:15:21.350Z,11.28
2023-04-15T16:17:48.710Z,11.17
2023-04-15T16:20:16.703Z,11.11
2023-04-15T16:22:44.363Z,11.00
2023-04-15T16:25:13.536Z,10.99
2023-04-15T16:27:58.812Z,10.90
2023-04-15T16:30:29.019Z,10.85
2023-04-15T16:32:57.875Z,10.83
2023-04-15T16:35:26.566Z,10.79
2023-04-15T16:37:53.857Z,10.69
2023-04-15T16:40:21.868Z,10.64
2023-04-15T16:42:51.725Z,10.67
2023-04-15T16:45:19.272Z,10.64
2023-04-15T16:47:46.705Z,10.62
2023-04-15T16:50:14.684Z,10.57
2023-04-15T16:52:42.273Z,10.54
2023-04-15T16:55:10.829Z,10.50
2023-04-15T16:58:00.557Z,10.45
2023-04-15T17:00:27.350Z,10.44
2023-04-15T17:02:56.174Z,10.28
2023-04-15T17:05:23.650Z,10.20
2023-04-15T17:07:51.090Z,10.12
2023-04-15T17:10:18.469Z,10.10
2023-04-15T17:12:45.794Z,10.05
2023-04-15T17:15:14.168Z,10.01
2023-04-15T17:17:41.483Z,9.99
2023-04-15T17:20:09.498Z,10.00
2023-04-15T17:22:37.018Z,9.99
2023-04-15T17:25:05.480Z,9.95
2023-04-15T17:27:32.939Z,9.93
2023-04-15T17:30:01.920Z,9.88
2023-04-15T17:32:34.342Z,9.84
2023-04-15T17:35:06.458Z,9.85
2023-04-15T17:37:36.178Z,9.87
2023-04-15T17:40:04.823Z,9.85
2023-04-15T17:42:34.254Z,9.80
2023-04-15T17:45:01.587Z,9.80
2023-04-15T17:47:29.015Z,9.76
2023-04-15T17:49:56.377Z,9.70
2023-04-15T17:52:23.778Z,9.60
2023-04-15T17:54:52.460Z,9.54
2023-04-15T17:57:19.811Z,9.54
2023-04-15T17:59:48.033Z,9.48
2023-04-15T18:02:16.025Z,9.47
2023-04-15T18:04:45.315Z,9.45
2023-04-15T18:07:12.689Z,9.40
2023-04-15T18:09:40.080Z,9.29
2023-04-15T18:12:08.996Z,9.25
2023-04-15T18:14:37.080Z,9.21
2023-04-15T18:17:04.601Z,9.14
2023-04-15T18:19:36.233Z,9.10
2023-04-15T18:22:04.067Z,9.10
2023-04-15T18:24:31.764Z,9.06
2023-04-15T18:26:59.487Z,9.04
2023-04-15T18:29:26.888Z,9.02
2023-04-15T18:31:56.793Z,9.01
2023-04-15T18:34:26.475Z,8.96
2023-04-15T18:36:59.912Z,8.94
2023-04-15T18:39:28.121Z,8.92
2023-04-15T18:41:57.334Z,8.88
2023-04-15T18:44:24.655Z,8.82
2023-04-15T18:46:52.018Z,8.72
2023-04-15T18:49:19.337Z,8.65
2023-04-15T18:51:46.637Z,8.68
2023-04-15T18:54:14.965Z,8.64
2023-04-15T18:56:43.677Z,8.57
2023-04-15T18:59:28.801Z,8.49
2023-04-15T19:02:00.221Z,8.37
2023-04-15T19:04:30.632Z,8.26
2023-04-15T19:06:59.197Z,8.19
2023-04-15T19:09:28.127Z,8.07
2023-04-15T19:11:56.946Z,8.01
2023-04-15T19:14:24.657Z,7.93
2023-04-15T19:16:53.159Z,7.94
2023-04-15T19:19:23.155Z,7.87
2023-04-15T19:21:50.998Z,7.83
2023-04-15T19:24:20.176Z,7.82
2023-04-15T19:26:51.181Z,7.77
2023-04-15T19:29:19.703Z,7.71
2023-04-15T19:31:47.052Z,7.72
2023-04-15T19:34:14.627Z,7.72
2023-04-15T19:36:43.200Z,7.66
2023-04-15T19:39:10.675Z,7.69
2023-04-15T19:41:39.321Z,7.67
2023-04-15T19:44:06.976Z,7.59
2023-04-15T19:46:34.341Z,7.58
2023-04-15T19:49:01.798Z,7.55
2023-04-15T19:51:31.792Z,7.51
2023-04-15T19:53:59.689Z,7.51
2023-04-15T19:56:27.062Z,7.50
2023-04-15T19:58:55.309Z,7.47
2023-04-15T20:01:23.372Z,7.45
2023-04-15T20:03:54.733Z,7.48
2023-04-15T20:06:23.900Z,7.47
2023-04-15T20:08:51.817Z,7.47
2023-04-15T20:11:19.280Z,7.49
2023-04-15T20:13:46.629Z,7.56
2023-04-15T20:16:16.068Z,7.58
2023-04-15T20:18:43.438Z,7.58
2023-04-15T20:21:10.810Z,7.57
2023-04-15T20:23:43.231Z,7.50
2023-04-15T20:26:10.687Z,7.49
2023-04-15T20:28:38.889Z,7.47
2023-04-15T20:31:06.225Z,7.42
2023-04-15T20:33:33.518Z,7.42
2023-04-15T20:36:00.811Z,7.40
2023-04-15T20:38:29.289Z,7.44
2023-04-15T20:40:57.852Z,7.42
2023-04-15T20:43:26.163Z,7.42
2023-04-15T20:45:56.600Z,7.42
2023-04-15T20:48:25.451Z,7.44
2023-04-15T20:50:52.720Z,7.40
2023-04-15T20:53:20.024Z,7.36
2023-04-15T20:55:47.355Z,7.39
2023-04-15T20:58:15.786Z,7.38
2023-04-15T21:00:45.413Z,7.36
2023-04-15T21:03:13.022Z,7.46
2023-04-15T21:05:40.543Z,7.45
2023-04-15T21:08:07.818Z,7.41
2023-04-15T21:10:42.547Z,7.45
2023-04-15T21:13:10.079Z,7.44
2023-04-15T21:15:39.391Z,7.45
2023-04-15T21:18:06.760Z,7.47
2023-04-15T21:20:34.114Z,7.48
2023-04-15T21:23:03.761Z,7.51
2023-04-15T21:25:31.033Z,7.48
2023-04-15T21:27:58.303Z,7.52
2023-04-15T21:30:25.620Z,7.57
2023-04-15T21:32:53.066Z,7.59
2023-04-15T21:35:20.362Z,7.65
2023-04-15T21:37:47.699Z,7.67
2023-04-15T21:40:16.009Z,7.66
2023-04-15T21:42:43.266Z,7.64
2023-04-15T21:45:11.402Z,7.63
2023-04-15T21:48:04.957Z,7.60
2023-04-15T21:50:26.218Z,7.63
2023-04-15T21:52:53.693Z,7.64
2023-04-15T21:55:21.270Z,7.66
2023-04-15T21:57:48.551Z,7.68
2023-04-15T22:00:16.437Z,7.67
2023-04-15T22:02:43.850Z,7.73
2023-04-15T22:05:13.736Z,7.75
2023-04-15T22:07:44.737Z,7.72
2023-04-15T22:10:12.040Z,7.72
2023-04-15T22:12:43.090Z,7.71
2023-04-15T22:15:10.605Z,7.79
2023-04-15T22:17:37.950Z,7.80
2023-04-15T22:20:08.546Z,7.77
2023-04-15T22:22:43.853Z,7.74
2023-04-15T22:25:12.698Z,7.70
2023-04-15T22:27:39.973Z,7.71
2023-04-15T22:30:08.680Z,7.68
2023-04-15T22:32:36.341Z,7.67
2023-04-15T22:35:06.346Z,7.69
2023-04-15T22:37:33.873Z,7.70
2023-04-15T22:40:02.241Z,7.73
2023-04-15T22:42:29.586Z,7.78
2023-04-15T22:44:56.960Z,7.76
2023-04-15T22:47:24.292Z,7.75
2023-04-15T22:49:51.611Z,7.72
2023-04-15T22:55:23.692Z,7.78
2023-04-15T22:57:52.773Z,7.78
2023-04-15T23:00:20.125Z,7.79
2023-04-15T23:02:47.519Z,7.77
2023-04-15T23:05:14.902Z,7.77
2023-04-15T23:07:42.241Z,7.76
2023-04-15T23:10:10.024Z,7.77
2023-04-15T23:12:37.348Z,7.81
2023-04-15T23:15:05.372Z,7.78
2023-04-15T23:17:32.590Z,7.77
2023-04-15T23:19:59.841Z,7.74
2023-04-15T23:22:27.922Z,7.71
2023-04-15T23:24:55.204Z,7.74
2023-04-15T23:27:22.836Z,7.76
2023-04-15T23:29:50.065Z,7.73
2023-04-15T23:32:17.614Z,7.73
2023-04-15T23:34:44.864Z,7.73
2023-04-15T23:37:12.210Z,7.74
2023-04-15T23:39:39.444Z,7.72
2023-04-15T23:42:07.149Z,7.73
2023-04-15T23:44:35.815Z,7.72
2023-04-15T23:47:03.145Z,7.77
2023-04-15T23:49:30.807Z,7.74
2023-04-15T23:51:58.099Z,7.70
2023-04-15T23:54:25.518Z,7.68
2023-04-15T23:56:52.877Z,7.66
2023-04-15T23:59:20.178Z,7.64
